createdAt,value
2018-08-31T00:01:24.164Z,662.40
2018-08-31T00:05:46.678Z,664.87
2018-08-31T00:10:53.619Z,433.73
2018-08-31T00:13:32.060Z,249.20
2018-08-31T00:16:12.253Z,333.30
2018-08-31T00:18:52.337Z,440.10
2018-08-31T00:21:32.481Z,459.53
2018-08-31T00:24:24.414Z,326.10
2018-08-31T00:27:14.979Z,269.13
2018-08-31T00:30:05.747Z,240.87
2018-08-31T00:38:04.337Z,265.03
2018-08-31T00:43:01.995Z,244.33
2018-08-31T00:45:41.783Z,230.33
2018-08-31T00:48:20.322Z,206.93
2018-08-31T00:50:59.198Z,154.10
2018-08-31T00:53:39.081Z,195.80
2018-08-31T00:56:18.827Z,240.67
2018-08-31T00:58:56.980Z,187.73
2018-08-31T01:01:36.210Z,289.23
2018-08-31T01:04:14.400Z,416.37
2018-08-31T01:06:53.024Z,513.60
2018-08-31T01:09:32.022Z,601.27
2018-08-31T01:12:11.535Z,699.77
2018-08-31T01:14:50.423Z,668.60
2018-08-31T01:17:30.880Z,675.37
2018-08-31T01:20:10.023Z,720.17
2018-08-31T01:22:49.058Z,552.57
2018-08-31T01:25:28.564Z,476.77
2018-08-31T01:28:07.547Z,505.83
2018-08-31T01:30:46.098Z,505.90
2018-08-31T01:33:24.803Z,510.83
2018-08-31T01:36:03.781Z,603.60
2018-08-31T01:38:43.845Z,648.10
2018-08-31T01:41:22.377Z,671.70
2018-08-31T01:44:01.935Z,604.60
2018-08-31T01:46:40.280Z,771.23
2018-08-31T01:49:20.319Z,739.53
2018-08-31T01:52:00.144Z,780.87
2018-08-31T01:54:38.820Z,798.60
2018-08-31T01:57:17.861Z,790.93
2018-08-31T01:59:58.184Z,668.17
2018-08-31T02:02:38.700Z,777.80
2018-08-31T02:05:19.038Z,797.20
2018-08-31T02:07:57.822Z,842.33
2018-08-31T02:10:37.213Z,837.90
2018-08-31T02:13:16.120Z,792.67
2018-08-31T02:15:55.844Z,782.53
2018-08-31T02:18:35.117Z,718.43
2018-08-31T02:21:13.002Z,750.53
2018-08-31T02:23:51.976Z,757.70
2018-08-31T02:26:30.882Z,706.60
2018-08-31T02:29:09.884Z,602.37
2018-08-31T02:31:47.803Z,696.27
2018-08-31T02:34:26.322Z,706.23
2018-08-31T02:37:04.884Z,731.73
2018-08-31T02:39:45.480Z,704.77
2018-08-31T02:42:26.596Z,734.27
2018-08-31T02:45:07.040Z,707.73
2018-08-31T02:47:49.619Z,678.93
2018-08-31T02:50:32.769Z,810.43
2018-08-31T02:53:14.700Z,647.20
2018-08-31T02:55:55.781Z,712.80
2018-08-31T02:58:36.198Z,749.07
2018-08-31T03:01:15.702Z,653.20
2018-08-31T03:03:56.103Z,728.13
2018-08-31T03:06:35.062Z,797.10
2018-08-31T03:09:14.322Z,796.37
2018-08-31T03:11:52.662Z,760.27
2018-08-31T03:14:35.538Z,773.43
2018-08-31T03:17:18.161Z,721.83
2018-08-31T03:19:59.702Z,745.70
2018-08-31T03:22:37.964Z,692.73
2018-08-31T03:25:18.019Z,742.40
2018-08-31T03:27:58.425Z,777.83
2018-08-31T03:30:38.182Z,707.43
2018-08-31T03:33:19.765Z,588.87
2018-08-31T03:36:14.659Z,748.40
2018-08-31T03:38:54.896Z,731.53
2018-08-31T03:41:32.727Z,735.93
2018-08-31T03:44:12.524Z,699.53
2018-08-31T03:46:53.925Z,677.93
2018-08-31T03:49:34.582Z,668.87
2018-08-31T03:52:13.118Z,641.93
2018-08-31T03:54:53.655Z,529.47
2018-08-31T03:57:36.216Z,636.90
2018-08-31T04:00:17.279Z,713.30
2018-08-31T04:02:59.476Z,699.47
2018-08-31T04:05:41.806Z,714.93
2018-08-31T04:08:20.148Z,710.27
2018-08-31T04:10:58.940Z,755.20
2018-08-31T04:13:38.638Z,723.57
2018-08-31T04:16:19.119Z,670.60
2018-08-31T04:18:59.043Z,560.60
2018-08-31T04:21:41.159Z,493.27
2018-08-31T04:24:22.078Z,539.10
2018-08-31T04:27:01.382Z,513.43
2018-08-31T04:29:40.634Z,516.80
2018-08-31T04:32:21.822Z,622.57
2018-08-31T04:35:01.507Z,641.33
2018-08-31T04:37:41.641Z,591.17
2018-08-31T04:40:24.004Z,563.60
2018-08-31T04:43:05.541Z,391.50
2018-08-31T04:45:45.319Z,248.43
2018-08-31T04:48:25.580Z,219.70
2018-08-31T04:51:06.361Z,238.87
2018-08-31T04:53:47.401Z,273.77
2018-08-31T04:56:26.658Z,178.33
2018-08-31T04:59:09.759Z,192.13
2018-08-31T05:01:54.906Z,183.20
2018-08-31T05:04:34.040Z,250.00
2018-08-31T05:07:17.418Z,277.53
2018-08-31T05:09:58.217Z,351.87
2018-08-31T05:12:42.822Z,376.20
2018-08-31T05:15:26.774Z,347.33
2018-08-31T05:18:08.340Z,347.70
2018-08-31T05:20:52.824Z,416.00
2018-08-31T05:23:35.619Z,439.43
2018-08-31T05:26:14.902Z,430.80
2018-08-31T05:28:53.778Z,443.73
2018-08-31T05:31:33.258Z,442.43
2018-08-31T05:34:17.724Z,447.73
2018-08-31T05:37:00.602Z,435.87
2018-08-31T05:39:45.134Z,458.77
2018-08-31T05:42:30.642Z,432.50
2018-08-31T05:45:15.019Z,474.63
2018-08-31T05:47:56.779Z,483.70
2018-08-31T05:50:36.640Z,391.93
2018-08-31T05:53:19.563Z,445.27
2018-08-31T05:55:58.260Z,358.33
2018-08-31T05:58:43.698Z,433.80
2018-08-31T06:01:23.159Z,233.60
2018-08-31T06:04:05.580Z,153.13
2018-08-31T06:06:46.545Z,121.60
2018-08-31T06:09:28.218Z,166.53
2018-08-31T06:12:08.598Z,214.10
2018-08-31T06:14:48.825Z,294.93
2018-08-31T06:17:31.021Z,409.17
2018-08-31T06:20:10.721Z,267.93
2018-08-31T06:22:50.118Z,321.63
2018-08-31T06:25:30.256Z,246.60
2018-08-31T06:28:10.520Z,348.07
2018-08-31T06:30:55.280Z,265.03
2018-08-31T06:33:35.881Z,201.67
2018-08-31T06:36:17.620Z,113.63
2018-08-31T06:39:00.671Z,126.00
2018-08-31T06:41:46.215Z,295.67
2018-08-31T06:44:28.500Z,222.13
2018-08-31T06:47:09.307Z,185.20
2018-08-31T06:49:50.465Z,112.40
2018-08-31T06:52:32.876Z,311.87
2018-08-31T06:55:12.517Z,310.10
2018-08-31T06:57:52.678Z,567.10
2018-08-31T07:00:30.305Z,504.13
2018-08-31T07:03:10.637Z,795.23
2018-08-31T07:05:54.119Z,847.97
2018-08-31T07:08:32.858Z,895.40
2018-08-31T07:11:12.762Z,873.83
2018-08-31T07:13:52.082Z,998.80
2018-08-31T07:16:34.040Z,956.47
2018-08-31T07:19:14.403Z,999.50
2018-08-31T07:21:54.882Z,959.27
2018-08-31T07:25:00.848Z,908.53
2018-08-31T07:27:40.396Z,661.20
2018-08-31T07:30:19.377Z,831.80
2018-08-31T07:32:59.939Z,650.70
2018-08-31T07:35:38.045Z,704.50
2018-08-31T07:38:18.461Z,723.80
2018-08-31T07:40:57.004Z,252.63
2018-08-31T07:43:35.461Z,67.93
2018-08-31T07:46:14.145Z,100.57
2018-08-31T07:48:53.400Z,178.27
2018-08-31T07:51:33.120Z,133.40
2018-08-31T07:54:12.443Z,220.13
2018-08-31T07:56:51.979Z,210.70
2018-08-31T07:59:32.022Z,551.40
2018-08-31T08:02:15.255Z,119.83
2018-08-31T08:04:54.684Z,736.37
2018-08-31T08:07:38.341Z,999.90
2018-08-31T08:10:19.339Z,999.90
2018-08-31T08:13:07.816Z,881.67
2018-08-31T08:15:49.918Z,999.90
2018-08-31T08:18:30.626Z,999.90
2018-08-31T08:21:13.130Z,999.90
2018-08-31T08:23:52.582Z,999.90
2018-08-31T08:26:30.497Z,908.37
2018-08-31T08:29:11.721Z,999.90
2018-08-31T08:31:52.426Z,999.90
2018-08-31T08:34:36.059Z,999.90
2018-08-31T08:37:17.783Z,900.97
2018-08-31T08:39:58.545Z,597.83
2018-08-31T08:42:39.624Z,999.90
2018-08-31T08:45:18.942Z,999.90
2018-08-31T08:47:59.567Z,999.90
2018-08-31T08:50:39.601Z,999.90
2018-08-31T08:53:19.746Z,999.90
2018-08-31T08:56:03.006Z,999.90
2018-08-31T08:58:46.322Z,999.90
2018-08-31T09:01:30.709Z,999.90
2018-08-31T09:04:10.980Z,999.90
2018-08-31T09:06:51.945Z,999.90
2018-08-31T09:09:35.360Z,999.90
2018-08-31T09:12:17.008Z,461.13
2018-08-31T09:14:56.185Z,999.90
2018-08-31T09:17:36.940Z,999.90
2018-08-31T09:20:20.867Z,999.90
2018-08-31T09:23:00.441Z,999.90
2018-08-31T09:25:44.718Z,998.17
2018-08-31T09:28:25.840Z,999.90
2018-08-31T09:31:05.302Z,999.90
2018-08-31T09:33:45.360Z,999.90
2018-08-31T09:36:27.383Z,999.90
2018-08-31T09:39:05.718Z,992.63
2018-08-31T09:41:47.402Z,279.60
2018-08-31T09:44:26.584Z,426.80
2018-08-31T09:47:06.602Z,768.47
2018-08-31T09:49:44.886Z,999.90
2018-08-31T09:52:26.841Z,999.90
2018-08-31T09:55:06.678Z,999.90
2018-08-31T09:57:54.480Z,999.90
2018-08-31T10:00:35.881Z,999.90
2018-08-31T10:03:20.523Z,999.90
2018-08-31T10:06:05.098Z,999.90
2018-08-31T10:08:44.641Z,999.90
2018-08-31T10:11:24.586Z,999.90
2018-08-31T10:14:06.228Z,741.40
2018-08-31T10:16:47.477Z,999.90
2018-08-31T10:19:30.223Z,999.90
2018-08-31T10:22:08.480Z,999.90
2018-08-31T10:24:52.938Z,999.90
2018-08-31T10:27:34.823Z,999.90
2018-08-31T10:30:17.863Z,999.90
2018-08-31T10:32:56.700Z,999.90
2018-08-31T10:35:40.185Z,999.90
2018-08-31T10:38:18.800Z,791.13
2018-08-31T10:41:01.365Z,999.90
2018-08-31T10:43:42.799Z,646.23
2018-08-31T10:46:31.373Z,725.83
2018-08-31T10:49:09.258Z,643.80
2018-08-31T10:51:49.137Z,607.07
2018-08-31T10:54:30.602Z,999.90
2018-08-31T10:57:09.124Z,999.90
2018-08-31T10:59:50.260Z,999.90
2018-08-31T11:02:35.981Z,999.90
2018-08-31T11:05:15.220Z,999.90
2018-08-31T11:07:59.080Z,999.90
2018-08-31T11:10:46.160Z,999.90
2018-08-31T11:13:24.017Z,999.90
2018-08-31T11:16:03.744Z,999.90
2018-08-31T11:18:45.295Z,999.90
2018-08-31T11:21:23.666Z,999.90
2018-08-31T11:24:05.161Z,999.90
2018-08-31T11:26:53.057Z,999.90
2018-08-31T11:29:32.983Z,999.90
2018-08-31T11:32:21.661Z,999.90
2018-08-31T11:35:03.023Z,999.90
2018-08-31T11:37:46.662Z,999.90
2018-08-31T11:40:26.519Z,999.90
2018-08-31T11:43:05.701Z,999.90
2018-08-31T11:45:47.542Z,999.90
2018-08-31T11:48:29.642Z,999.90
2018-08-31T11:51:08.640Z,999.90
2018-08-31T11:53:49.222Z,999.90
2018-08-31T11:56:32.261Z,999.90
2018-08-31T11:59:16.937Z,999.90
2018-08-31T12:01:59.200Z,999.90
2018-08-31T12:04:39.916Z,999.90
2018-08-31T12:07:22.801Z,999.90
2018-08-31T12:10:05.700Z,999.90
2018-08-31T12:12:47.444Z,999.90
2018-08-31T12:15:27.767Z,999.90
2018-08-31T12:18:07.100Z,999.90
2018-08-31T12:20:53.834Z,999.90
2018-08-31T12:23:33.884Z,999.90
2018-08-31T12:26:20.403Z,828.90
2018-08-31T12:28:59.925Z,999.90
2018-08-31T12:31:37.382Z,999.90
2018-08-31T12:34:16.066Z,999.90
2018-08-31T12:36:59.282Z,999.90
2018-08-31T12:39:39.644Z,999.90
2018-08-31T12:42:18.598Z,999.90
2018-08-31T12:45:01.000Z,993.73
2018-08-31T12:47:43.082Z,999.90
2018-08-31T12:50:21.636Z,999.90
2018-08-31T12:52:59.857Z,999.90
2018-08-31T12:55:38.439Z,927.73
2018-08-31T12:58:19.382Z,999.90
2018-08-31T13:00:59.222Z,999.90
2018-08-31T13:03:41.179Z,999.90
2018-08-31T13:06:22.915Z,999.90
2018-08-31T13:09:03.902Z,999.90
2018-08-31T13:11:45.540Z,999.90
2018-08-31T13:14:25.641Z,999.90
2018-08-31T13:17:07.488Z,999.90
2018-08-31T13:19:48.664Z,999.90
2018-08-31T13:22:29.058Z,999.90
2018-08-31T13:25:16.277Z,999.90
2018-08-31T13:27:59.060Z,999.90
2018-08-31T13:30:45.587Z,999.90
2018-08-31T13:33:23.685Z,999.90
2018-08-31T13:36:09.783Z,999.90
2018-08-31T13:38:49.024Z,999.90
2018-08-31T13:41:30.497Z,999.90
2018-08-31T13:44:11.724Z,603.20
2018-08-31T13:46:58.039Z,999.90
2018-08-31T13:49:35.740Z,955.60
2018-08-31T13:52:22.042Z,454.10
2018-08-31T13:55:05.087Z,549.80
2018-08-31T13:57:48.007Z,943.13
2018-08-31T14:00:30.281Z,320.67
2018-08-31T14:03:13.995Z,531.67
2018-08-31T14:05:53.101Z,725.30
2018-08-31T14:08:32.359Z,625.00
2018-08-31T14:11:15.123Z,789.83
2018-08-31T14:13:54.426Z,707.53
2018-08-31T14:16:39.803Z,597.40
2018-08-31T14:19:20.266Z,734.50
2018-08-31T14:22:04.742Z,784.87
2018-08-31T14:24:47.200Z,999.90
2018-08-31T14:27:28.399Z,973.63
2018-08-31T14:30:10.021Z,200.87
2018-08-31T14:32:48.735Z,792.53
2018-08-31T14:35:27.165Z,668.77
2018-08-31T14:38:06.318Z,315.80
2018-08-31T14:40:48.387Z,411.70
2018-08-31T14:43:33.598Z,615.60
2018-08-31T14:46:14.566Z,529.50
2018-08-31T14:48:56.765Z,522.07
2018-08-31T14:51:41.407Z,429.63
2018-08-31T14:54:25.997Z,727.43
2018-08-31T14:57:10.818Z,589.23
2018-08-31T14:59:48.217Z,470.63
2018-08-31T15:02:27.919Z,684.60
2018-08-31T15:05:08.722Z,984.70
2018-08-31T15:07:50.506Z,312.03
2018-08-31T15:10:29.644Z,736.70
2018-08-31T15:13:10.656Z,581.67
2018-08-31T15:15:56.265Z,480.43
2018-08-31T15:18:36.221Z,412.67
2018-08-31T15:21:16.460Z,359.60
2018-08-31T15:23:56.182Z,713.87
2018-08-31T15:26:41.359Z,999.90
2018-08-31T15:29:22.124Z,999.90
2018-08-31T15:32:02.460Z,999.90
2018-08-31T15:34:47.699Z,999.90
2018-08-31T15:37:26.385Z,999.90
2018-08-31T15:40:05.643Z,999.90
2018-08-31T15:42:46.507Z,999.90
2018-08-31T15:45:28.242Z,999.90
2018-08-31T15:48:08.738Z,985.57
2018-08-31T15:50:49.339Z,999.90
2018-08-31T15:53:32.116Z,999.90
2018-08-31T15:56:12.424Z,999.90
2018-08-31T15:58:54.765Z,999.90
2018-08-31T16:01:38.382Z,999.90
2018-08-31T16:04:18.282Z,999.90
2018-08-31T16:06:56.966Z,999.90
2018-08-31T16:09:39.803Z,999.90
2018-08-31T16:12:18.711Z,999.90
2018-08-31T16:15:00.681Z,829.20
2018-08-31T16:17:42.198Z,999.90
2018-08-31T16:20:28.126Z,912.87
2018-08-31T16:23:09.675Z,918.13
2018-08-31T16:25:51.558Z,999.90
2018-08-31T16:28:34.020Z,746.70
2018-08-31T16:31:14.566Z,943.93
2018-08-31T16:33:52.198Z,900.47
2018-08-31T16:36:30.958Z,655.43
2018-08-31T16:39:14.099Z,306.87
2018-08-31T16:41:53.801Z,369.43
2018-08-31T16:44:31.974Z,226.30
2018-08-31T16:47:09.756Z,243.33
2018-08-31T16:49:51.439Z,136.57
2018-08-31T16:52:29.423Z,163.03
2018-08-31T16:55:14.660Z,106.53
2018-08-31T16:57:53.210Z,146.47
2018-08-31T17:00:31.241Z,108.17
2018-08-31T17:03:14.022Z,113.70
2018-08-31T17:05:52.086Z,82.03
2018-08-31T17:08:30.719Z,124.30
2018-08-31T17:11:12.198Z,165.60
2018-08-31T17:13:54.424Z,125.13
2018-08-31T17:16:32.441Z,179.60
2018-08-31T17:19:12.483Z,173.97
2018-08-31T17:21:55.545Z,235.93
2018-08-31T17:24:37.203Z,215.03
2018-08-31T17:27:19.004Z,226.57
2018-08-31T17:30:01.141Z,365.43
2018-08-31T17:32:42.701Z,321.47
2018-08-31T17:35:25.561Z,311.70
2018-08-31T17:38:04.580Z,422.60
2018-08-31T17:40:45.901Z,479.77
2018-08-31T17:43:24.100Z,216.80
2018-08-31T17:46:06.046Z,471.97
2018-08-31T17:48:43.681Z,437.57
2018-08-31T17:51:23.422Z,379.63
2018-08-31T17:54:07.889Z,387.07
2018-08-31T17:56:46.425Z,267.43
2018-08-31T17:59:23.957Z,217.37
2018-08-31T18:02:04.921Z,249.53
2018-08-31T18:04:45.659Z,376.60
2018-08-31T18:07:25.340Z,374.60
2018-08-31T18:10:06.915Z,195.13
2018-08-31T18:12:47.445Z,581.63
2018-08-31T18:15:26.993Z,673.50
2018-08-31T18:18:11.279Z,340.90
2018-08-31T18:20:49.399Z,708.80
2018-08-31T18:23:32.417Z,781.43
2018-08-31T18:26:18.742Z,847.93
2018-08-31T18:28:59.261Z,885.80
2018-08-31T18:31:42.124Z,859.53
2018-08-31T18:34:21.724Z,899.77
2018-08-31T18:37:06.583Z,876.93
2018-08-31T18:39:47.145Z,677.30
2018-08-31T18:42:25.757Z,486.80
2018-08-31T18:45:07.703Z,399.00
2018-08-31T18:47:48.857Z,348.00
2018-08-31T18:50:31.383Z,285.13
2018-08-31T18:53:09.960Z,607.30
2018-08-31T18:55:50.279Z,624.17
2018-08-31T18:58:30.802Z,801.13
2018-08-31T19:01:12.659Z,652.27
2018-08-31T19:03:51.941Z,499.83
2018-08-31T19:06:33.742Z,387.07
2018-08-31T19:09:16.905Z,676.37
2018-08-31T19:11:57.022Z,391.03
2018-08-31T19:14:35.923Z,414.57
2018-08-31T19:17:17.880Z,646.60
2018-08-31T19:19:57.377Z,450.00
2018-08-31T19:22:39.644Z,616.37
2018-08-31T19:25:18.580Z,158.97
2018-08-31T19:27:59.646Z,312.33
2018-08-31T19:30:42.239Z,327.87
2018-08-31T19:33:22.443Z,268.60
2018-08-31T19:36:02.080Z,134.73
2018-08-31T19:38:42.836Z,269.67
2018-08-31T19:41:22.160Z,472.27
2018-08-31T19:44:04.085Z,688.53
2018-08-31T19:46:45.421Z,551.00
2018-08-31T19:49:25.185Z,854.73
2018-08-31T19:52:05.098Z,826.80
2018-08-31T19:54:45.298Z,393.33
2018-08-31T19:57:25.158Z,491.97
2018-08-31T20:00:06.644Z,593.53
2018-08-31T20:02:45.301Z,304.80
2018-08-31T20:05:27.842Z,105.70
2018-08-31T20:08:07.067Z,47.10
2018-08-31T20:10:46.578Z,236.27
2018-08-31T20:13:26.867Z,327.77
2018-08-31T20:16:05.778Z,334.90
2018-08-31T20:18:44.842Z,334.60
2018-08-31T20:21:28.199Z,290.40
2018-08-31T20:24:09.241Z,353.63
2018-08-31T20:26:49.526Z,316.73
2018-08-31T20:29:28.443Z,329.80
2018-08-31T20:32:10.099Z,155.63
2018-08-31T20:34:53.160Z,229.67
2018-08-31T20:37:34.658Z,187.40
2018-08-31T20:40:14.714Z,247.63
2018-08-31T20:42:55.301Z,119.20
2018-08-31T20:45:34.275Z,225.63
2018-08-31T20:48:14.760Z,103.27
2018-08-31T20:50:52.307Z,208.20
2018-08-31T20:53:32.499Z,159.73
2018-08-31T20:56:11.861Z,135.27
2018-08-31T20:58:51.758Z,588.70
2018-08-31T21:01:32.381Z,175.57
2018-08-31T21:04:10.428Z,77.03
2018-08-31T21:06:49.565Z,190.60
2018-08-31T21:09:29.096Z,439.17
2018-08-31T21:12:08.598Z,689.10
2018-08-31T21:14:50.387Z,660.87
2018-08-31T21:17:30.104Z,755.63
2018-08-31T21:20:12.105Z,438.77
2018-08-31T21:22:52.881Z,743.47
2018-08-31T21:25:33.678Z,546.83
2018-08-31T21:28:16.161Z,615.67
2018-08-31T21:31:00.281Z,565.17
2018-08-31T21:33:39.580Z,552.00
2018-08-31T21:36:20.147Z,347.77
2018-08-31T21:38:59.864Z,204.37
2018-08-31T21:41:40.397Z,142.10
2018-08-31T21:44:21.940Z,255.63
2018-08-31T21:47:03.525Z,251.43
2018-08-31T21:49:42.282Z,191.47
2018-08-31T21:52:21.199Z,133.83
2018-08-31T21:55:03.762Z,176.93
2018-08-31T21:57:43.861Z,136.27
2018-08-31T22:00:26.657Z,141.20
2018-08-31T22:03:05.724Z,76.73
2018-08-31T22:05:43.880Z,93.07
2018-08-31T22:08:25.094Z,326.30
2018-08-31T22:11:03.402Z,162.53
2018-08-31T22:13:42.838Z,305.73
2018-08-31T22:16:21.701Z,171.87
2018-08-31T22:19:01.237Z,259.63
2018-08-31T22:21:39.458Z,198.07
2018-08-31T22:24:19.257Z,686.87
2018-08-31T22:26:58.730Z,526.93
2018-08-31T22:29:39.141Z,813.97
2018-08-31T22:32:18.962Z,689.90
2018-08-31T22:34:58.503Z,570.23
2018-08-31T22:37:37.978Z,518.60
2018-08-31T22:40:17.401Z,714.27
2018-08-31T22:42:58.683Z,295.67
2018-08-31T22:45:38.643Z,360.07
2018-08-31T22:48:23.657Z,522.73
2018-08-31T22:51:03.638Z,112.47
2018-08-31T22:53:41.903Z,194.10
2018-08-31T22:56:22.541Z,110.77
2018-08-31T22:59:01.725Z,68.23
2018-08-31T23:01:40.144Z,65.43
2018-08-31T23:04:18.282Z,116.20
2018-08-31T23:06:58.001Z,73.27
2018-08-31T23:09:36.161Z,62.10
2018-08-31T23:12:19.666Z,136.63
2018-08-31T23:14:59.157Z,147.17
2018-08-31T23:17:38.638Z,187.50
2018-08-31T23:20:19.083Z,149.57
2018-08-31T23:23:01.577Z,160.67
2018-08-31T23:25:44.385Z,311.70
2018-08-31T23:28:25.350Z,326.17
2018-08-31T23:31:04.756Z,549.90
2018-08-31T23:33:43.683Z,506.03
2018-08-31T23:36:23.741Z,941.43
2018-08-31T23:39:03.476Z,999.90
2018-08-31T23:41:43.043Z,999.90
2018-08-31T23:44:25.126Z,882.50
2018-08-31T23:47:08.459Z,569.87
2018-08-31T23:49:48.100Z,555.97
2018-08-31T23:52:27.642Z,707.33
2018-08-31T23:55:08.164Z,666.97
2018-08-31T23:57:47.619Z,540.50
